Jonathan, Mississippi
Current Conditions -  °F | °C
As of 9:21 PM on Saturday 20 Dec 2014 (Local Time) from KMOB Reporting Station
Overcast Overcast  
Wind Chill: 45°   Ceiling: 1000
Heat Index: 49°   Visibility: 10mi
Dew Point: 47°   Wind: 10mph
Humidity: 93%   Direction: 30°NNE
Pressure: 30.15"   Gusts: NA
Location:  31.1153°N, 88.5168°W
Report Text: KMOB 210321Z 03009KT 10SM OVC010 09/08 A3015 RMK AO2 T00940083 $
Loading
Personal Weather Stations






























Interactive Weather Map New forecast layout! Learn more

10-Day Weather Forecast

Advertisements
Track Severe Weather on mobile